ルレオ の空港の天気 - METARとTAF

Lulea / Kallax ( ESPA / LLA ) - スウェーデン ルレオ
飛行場実況気象(Metar)
観測時間04/27 06:50 CEST (04/27 04:50 UTC)
風向・風速北 2m/s
視程10km以上
天気現象
なし
気温2℃
湿度87%
気圧1000hPa
METARESPA 270450Z 35003KT CAVOK 02/M00 Q1000
過去の天気等 Google飛行場航空写真 Wunderground天気予報

過去48時間のMETAR

飛行場予報(TAF)
発表時間: 4/27 06:00 CEST (4/27 04:00 UTC)
予報対象時間: 27日6時 CEST ~ 27日14時 CEST
風向・風速不定 2m/s
視程10km以上
なし
TAF COR ESPA 270400Z 2704/2712 VRB03KT CAVOK RMK MIL